sensor_id;sensor_type;location;lat;lon;timestamp;temperature;humidity
13332;DHT22;6735;51.456;12.626;2023-03-11T00:00:18;2.60;87.10
13332;DHT22;6735;51.456;12.626;2023-03-11T00:02:45;2.60;87.10
13332;DHT22;6735;51.456;12.626;2023-03-11T00:05:32;2.50;87.00
13332;DHT22;6735;51.456;12.626;2023-03-11T00:07:58;2.60;87.20
13332;DHT22;6735;51.456;12.626;2023-03-11T00:10:28;2.60;87.20
13332;DHT22;6735;51.456;12.626;2023-03-11T00:12:53;2.50;87.20
13332;DHT22;6735;51.456;12.626;2023-03-11T00:15:19;2.40;87.10
13332;DHT22;6735;51.456;12.626;2023-03-11T00:17:47;2.20;87.30
13332;DHT22;6735;51.456;12.626;2023-03-11T00:20:20;2.20;87.60
13332;DHT22;6735;51.456;12.626;2023-03-11T00:22:46;2.20;87.50
13332;DHT22;6735;51.456;12.626;2023-03-11T00:25:12;2.10;87.90
13332;DHT22;6735;51.456;12.626;2023-03-11T00:27:38;2.10;87.80
13332;DHT22;6735;51.456;12.626;2023-03-11T00:30:04;2.00;87.80
13332;DHT22;6735;51.456;12.626;2023-03-11T00:32:30;2.00;87.80
13332;DHT22;6735;51.456;12.626;2023-03-11T00:34:55;2.10;88.00
13332;DHT22;6735;51.456;12.626;2023-03-11T00:37:21;2.10;88.00
13332;DHT22;6735;51.456;12.626;2023-03-11T00:39:46;2.00;87.80
13332;DHT22;6735;51.456;12.626;2023-03-11T00:42:12;2.00;88.00
13332;DHT22;6735;51.456;12.626;2023-03-11T00:44:37;2.00;87.90
13332;DHT22;6735;51.456;12.626;2023-03-11T00:47:03;2.00;88.00
13332;DHT22;6735;51.456;12.626;2023-03-11T00:49:28;2.00;88.00
13332;DHT22;6735;51.456;12.626;2023-03-11T00:51:54;2.00;88.10
13332;DHT22;6735;51.456;12.626;2023-03-11T00:54:19;2.00;88.00
13332;DHT22;6735;51.456;12.626;2023-03-11T00:56:45;1.90;88.00
13332;DHT22;6735;51.456;12.626;2023-03-11T00:59:11;1.90;88.20
13332;DHT22;6735;51.456;12.626;2023-03-11T01:01:37;1.90;88.30
13332;DHT22;6735;51.456;12.626;2023-03-11T01:04:02;1.90;88.20
13332;DHT22;6735;51.456;12.626;2023-03-11T01:06:28;1.90;88.30
13332;DHT22;6735;51.456;12.626;2023-03-11T01:08:53;1.90;88.20
13332;DHT22;6735;51.456;12.626;2023-03-11T01:11:19;1.80;88.30
13332;DHT22;6735;51.456;12.626;2023-03-11T01:13:45;1.80;88.30
13332;DHT22;6735;51.456;12.626;2023-03-11T01:16:10;1.80;88.50
13332;DHT22;6735;51.456;12.626;2023-03-11T01:18:36;1.70;88.40
13332;DHT22;6735;51.456;12.626;2023-03-11T01:21:01;1.70;88.60
13332;DHT22;6735;51.456;12.626;2023-03-11T01:23:27;1.60;88.80
13332;DHT22;6735;51.456;12.626;2023-03-11T01:25:53;1.60;89.00
13332;DHT22;6735;51.456;12.626;2023-03-11T01:28:18;1.60;89.10
13332;DHT22;6735;51.456;12.626;2023-03-11T01:30:44;1.50;89.20
13332;DHT22;6735;51.456;12.626;2023-03-11T01:33:14;1.40;89.30
13332;DHT22;6735;51.456;12.626;2023-03-11T01:35:40;1.40;89.40
13332;DHT22;6735;51.456;12.626;2023-03-11T01:38:06;1.40;89.60
13332;DHT22;6735;51.456;12.626;2023-03-11T01:40:46;1.40;89.70
13332;DHT22;6735;51.456;12.626;2023-03-11T01:46:22;1.40;89.70
13332;DHT22;6735;51.456;12.626;2023-03-11T01:48:53;1.40;89.70
13332;DHT22;6735;51.456;12.626;2023-03-11T01:51:29;1.30;89.80
13332;DHT22;6735;51.456;12.626;2023-03-11T01:53:56;1.30;90.00
13332;DHT22;6735;51.456;12.626;2023-03-11T01:56:23;1.30;90.10
13332;DHT22;6735;51.456;12.626;2023-03-11T01:58:51;1.30;90.00
13332;DHT22;6735;51.456;12.626;2023-03-11T02:01:19;1.30;89.90
13332;DHT22;6735;51.456;12.626;2023-03-11T02:03:45;1.20;90.10
13332;DHT22;6735;51.456;12.626;2023-03-11T02:06:14;1.30;90.10
13332;DHT22;6735;51.456;12.626;2023-03-11T02:08:41;1.30;90.20
13332;DHT22;6735;51.456;12.626;2023-03-11T02:11:09;1.30;90.20
13332;DHT22;6735;51.456;12.626;2023-03-11T02:13:36;1.30;90.20
13332;DHT22;6735;51.456;12.626;2023-03-11T02:16:03;1.30;90.10
13332;DHT22;6735;51.456;12.626;2023-03-11T02:18:29;1.30;90.20
13332;DHT22;6735;51.456;12.626;2023-03-11T02:21:21;1.20;90.10
13332;DHT22;6735;51.456;12.626;2023-03-11T02:27:11;1.20;90.30
13332;DHT22;6735;51.456;12.626;2023-03-11T02:29:37;1.20;90.40
13332;DHT22;6735;51.456;12.626;2023-03-11T02:32:08;1.20;90.40
13332;DHT22;6735;51.456;12.626;2023-03-11T02:34:36;1.20;90.30
13332;DHT22;6735;51.456;12.626;2023-03-11T02:37:07;1.30;90.30
13332;DHT22;6735;51.456;12.626;2023-03-11T02:39:38;1.20;90.40
13332;DHT22;6735;51.456;12.626;2023-03-11T02:42:09;1.20;90.40
13332;DHT22;6735;51.456;12.626;2023-03-11T02:44:37;1.20;90.40
13332;DHT22;6735;51.456;12.626;2023-03-11T02:47:03;1.10;90.40
13332;DHT22;6735;51.456;12.626;2023-03-11T02:49:29;1.20;90.40
13332;DHT22;6735;51.456;12.626;2023-03-11T02:51:55;1.10;90.40
13332;DHT22;6735;51.456;12.626;2023-03-11T02:54:21;1.10;90.50
13332;DHT22;6735;51.456;12.626;2023-03-11T02:56:46;1.10;90.50
13332;DHT22;6735;51.456;12.626;2023-03-11T02:59:11;1.10;90.50
13332;DHT22;6735;51.456;12.626;2023-03-11T03:01:37;1.10;90.60
13332;DHT22;6735;51.456;12.626;2023-03-11T03:04:03;1.10;90.70
13332;DHT22;6735;51.456;12.626;2023-03-11T03:06:29;1.10;90.60
13332;DHT22;6735;51.456;12.626;2023-03-11T03:08:54;1.10;90.60
13332;DHT22;6735;51.456;12.626;2023-03-11T03:11:20;1.10;90.50
13332;DHT22;6735;51.456;12.626;2023-03-11T03:13:45;1.10;90.60
13332;DHT22;6735;51.456;12.626;2023-03-11T03:16:11;1.10;90.60
13332;DHT22;6735;51.456;12.626;2023-03-11T03:18:37;1.10;90.60
13332;DHT22;6735;51.456;12.626;2023-03-11T03:21:02;1.10;90.50
13332;DHT22;6735;51.456;12.626;2023-03-11T03:23:28;1.10;90.50
13332;DHT22;6735;51.456;12.626;2023-03-11T03:25:54;1.10;90.40
13332;DHT22;6735;51.456;12.626;2023-03-11T03:28:19;1.10;90.50
13332;DHT22;6735;51.456;12.626;2023-03-11T03:30:45;1.10;90.50
13332;DHT22;6735;51.456;12.626;2023-03-11T03:33:10;1.10;90.50
13332;DHT22;6735;51.456;12.626;2023-03-11T03:35:42;1.10;90.50
13332;DHT22;6735;51.456;12.626;2023-03-11T03:38:08;1.00;90.40
13332;DHT22;6735;51.456;12.626;2023-03-11T03:40:33;1.10;90.50
13332;DHT22;6735;51.456;12.626;2023-03-11T03:42:59;1.10;90.50
13332;DHT22;6735;51.456;12.626;2023-03-11T03:45:24;1.10;90.40
13332;DHT22;6735;51.456;12.626;2023-03-11T03:47:50;1.10;90.40
13332;DHT22;6735;51.456;12.626;2023-03-11T03:50:15;1.10;90.30
13332;DHT22;6735;51.456;12.626;2023-03-11T03:52:41;1.10;90.20
13332;DHT22;6735;51.456;12.626;2023-03-11T03:55:06;1.10;90.20
13332;DHT22;6735;51.456;12.626;2023-03-11T03:57:32;1.10;90.20
13332;DHT22;6735;51.456;12.626;2023-03-11T03:59:57;1.10;90.10
13332;DHT22;6735;51.456;12.626;2023-03-11T04:02:23;1.10;90.00
13332;DHT22;6735;51.456;12.626;2023-03-11T04:04:48;1.10;89.70
13332;DHT22;6735;51.456;12.626;2023-03-11T04:07:14;1.10;89.60
13332;DHT22;6735;51.456;12.626;2023-03-11T04:09:41;1.10;89.60
13332;DHT22;6735;51.456;12.626;2023-03-11T04:12:13;1.10;89.50
13332;DHT22;6735;51.456;12.626;2023-03-11T04:14:39;1.10;89.40
13332;DHT22;6735;51.456;12.626;2023-03-11T04:17:05;1.20;89.40
13332;DHT22;6735;51.456;12.626;2023-03-11T04:19:31;1.20;89.30
13332;DHT22;6735;51.456;12.626;2023-03-11T04:21:57;1.20;89.20
13332;DHT22;6735;51.456;12.626;2023-03-11T04:24:22;1.20;89.10
13332;DHT22;6735;51.456;12.626;2023-03-11T04:26:48;1.10;89.00
13332;DHT22;6735;51.456;12.626;2023-03-11T04:29:13;1.10;89.00
13332;DHT22;6735;51.456;12.626;2023-03-11T04:31:39;1.10;89.20
13332;DHT22;6735;51.456;12.626;2023-03-11T04:34:04;1.20;88.90
13332;DHT22;6735;51.456;12.626;2023-03-11T04:36:30;1.20;88.70
13332;DHT22;6735;51.456;12.626;2023-03-11T04:38:56;1.10;88.70
13332;DHT22;6735;51.456;12.626;2023-03-11T04:41:22;1.20;88.80
13332;DHT22;6735;51.456;12.626;2023-03-11T04:43:47;1.20;88.70
13332;DHT22;6735;51.456;12.626;2023-03-11T04:46:13;1.10;88.70
13332;DHT22;6735;51.456;12.626;2023-03-11T04:48:38;1.10;88.60
13332;DHT22;6735;51.456;12.626;2023-03-11T04:51:04;1.10;88.60
13332;DHT22;6735;51.456;12.626;2023-03-11T04:53:30;1.10;88.60
13332;DHT22;6735;51.456;12.626;2023-03-11T04:55:55;1.20;88.50
13332;DHT22;6735;51.456;12.626;2023-03-11T04:58:21;1.20;88.40
13332;DHT22;6735;51.456;12.626;2023-03-11T05:00:46;1.20;88.40
13332;DHT22;6735;51.456;12.626;2023-03-11T05:03:12;1.40;88.40
13332;DHT22;6735;51.456;12.626;2023-03-11T05:05:37;1.30;87.90
13332;DHT22;6735;51.456;12.626;2023-03-11T05:08:03;1.20;87.90
13332;DHT22;6735;51.456;12.626;2023-03-11T05:10:29;1.20;88.00
13332;DHT22;6735;51.456;12.626;2023-03-11T05:12:54;1.20;88.00
13332;DHT22;6735;51.456;12.626;2023-03-11T05:15:20;1.20;88.10
13332;DHT22;6735;51.456;12.626;2023-03-11T05:17:45;1.20;88.00
13332;DHT22;6735;51.456;12.626;2023-03-11T05:20:11;1.20;88.00
13332;DHT22;6735;51.456;12.626;2023-03-11T05:22:37;1.20;88.00
13332;DHT22;6735;51.456;12.626;2023-03-11T05:25:03;1.20;87.90
13332;DHT22;6735;51.456;12.626;2023-03-11T05:27:29;1.20;87.90
13332;DHT22;6735;51.456;12.626;2023-03-11T05:29:54;1.20;87.90
13332;DHT22;6735;51.456;12.626;2023-03-11T05:32:20;1.30;87.90
13332;DHT22;6735;51.456;12.626;2023-03-11T05:34:46;1.20;87.70
13332;DHT22;6735;51.456;12.626;2023-03-11T05:37:12;1.20;87.60
13332;DHT22;6735;51.456;12.626;2023-03-11T05:39:37;1.20;87.40
13332;DHT22;6735;51.456;12.626;2023-03-11T05:42:08;1.20;87.30
13332;DHT22;6735;51.456;12.626;2023-03-11T05:44:33;1.20;87.30
13332;DHT22;6735;51.456;12.626;2023-03-11T05:46:59;1.20;87.40
13332;DHT22;6735;51.456;12.626;2023-03-11T05:49:25;1.20;87.40
13332;DHT22;6735;51.456;12.626;2023-03-11T05:51:50;1.20;87.20
13332;DHT22;6735;51.456;12.626;2023-03-11T05:54:16;1.20;87.00
13332;DHT22;6735;51.456;12.626;2023-03-11T05:56:46;1.20;86.80
13332;DHT22;6735;51.456;12.626;2023-03-11T05:59:12;1.20;86.80
13332;DHT22;6735;51.456;12.626;2023-03-11T06:01:39;1.30;86.70
13332;DHT22;6735;51.456;12.626;2023-03-11T06:04:04;1.20;86.80
13332;DHT22;6735;51.456;12.626;2023-03-11T06:06:30;1.20;87.00
13332;DHT22;6735;51.456;12.626;2023-03-11T06:08:56;1.30;87.10
13332;DHT22;6735;51.456;12.626;2023-03-11T06:11:21;1.20;87.10
13332;DHT22;6735;51.456;12.626;2023-03-11T06:13:55;1.30;87.30
13332;DHT22;6735;51.456;12.626;2023-03-11T06:16:22;1.30;87.20
13332;DHT22;6735;51.456;12.626;2023-03-11T06:18:48;1.30;87.30
13332;DHT22;6735;51.456;12.626;2023-03-11T06:21:22;1.30;87.30
13332;DHT22;6735;51.456;12.626;2023-03-11T06:23:48;1.30;87.30
13332;DHT22;6735;51.456;12.626;2023-03-11T06:26:16;1.30;87.20
13332;DHT22;6735;51.456;12.626;2023-03-11T06:28:43;1.30;87.30
13332;DHT22;6735;51.456;12.626;2023-03-11T06:31:11;1.40;87.20
13332;DHT22;6735;51.456;12.626;2023-03-11T06:33:38;1.30;87.10
13332;DHT22;6735;51.456;12.626;2023-03-11T06:36:04;1.40;87.10
13332;DHT22;6735;51.456;12.626;2023-03-11T06:38:31;1.40;87.00
13332;DHT22;6735;51.456;12.626;2023-03-11T06:41:01;1.30;86.70
13332;DHT22;6735;51.456;12.626;2023-03-11T06:43:28;1.40;87.10
13332;DHT22;6735;51.456;12.626;2023-03-11T06:45:53;1.40;87.40
13332;DHT22;6735;51.456;12.626;2023-03-11T06:48:19;1.40;87.00
13332;DHT22;6735;51.456;12.626;2023-03-11T06:50:52;1.40;87.00
13332;DHT22;6735;51.456;12.626;2023-03-11T06:53:18;1.40;87.00
13332;DHT22;6735;51.456;12.626;2023-03-11T06:55:43;1.40;87.00
13332;DHT22;6735;51.456;12.626;2023-03-11T06:58:09;1.50;87.00
13332;DHT22;6735;51.456;12.626;2023-03-11T07:00:34;1.50;86.90
13332;DHT22;6735;51.456;12.626;2023-03-11T07:03:00;1.40;86.80
13332;DHT22;6735;51.456;12.626;2023-03-11T07:05:26;1.40;86.90
13332;DHT22;6735;51.456;12.626;2023-03-11T07:07:54;1.40;86.80
13332;DHT22;6735;51.456;12.626;2023-03-11T07:10:20;1.50;86.90
13332;DHT22;6735;51.456;12.626;2023-03-11T07:12:46;1.50;86.80
13332;DHT22;6735;51.456;12.626;2023-03-11T07:15:11;1.50;86.90
13332;DHT22;6735;51.456;12.626;2023-03-11T07:17:37;1.40;87.00
13332;DHT22;6735;51.456;12.626;2023-03-11T07:20:03;1.40;87.00
13332;DHT22;6735;51.456;12.626;2023-03-11T07:22:29;1.40;87.10
13332;DHT22;6735;51.456;12.626;2023-03-11T07:24:55;1.40;87.20
13332;DHT22;6735;51.456;12.626;2023-03-11T07:27:20;1.40;87.00
13332;DHT22;6735;51.456;12.626;2023-03-11T07:29:46;1.40;87.00
13332;DHT22;6735;51.456;12.626;2023-03-11T07:32:12;1.40;87.00
13332;DHT22;6735;51.456;12.626;2023-03-11T07:34:37;1.50;87.00
13332;DHT22;6735;51.456;12.626;2023-03-11T07:37:03;1.40;86.90
13332;DHT22;6735;51.456;12.626;2023-03-11T07:39:28;1.50;87.00
13332;DHT22;6735;51.456;12.626;2023-03-11T07:41:54;1.50;86.80
13332;DHT22;6735;51.456;12.626;2023-03-11T07:44:19;1.60;86.80
13332;DHT22;6735;51.456;12.626;2023-03-11T07:46:45;1.60;86.80
13332;DHT22;6735;51.456;12.626;2023-03-11T07:49:11;1.60;86.80
13332;DHT22;6735;51.456;12.626;2023-03-11T07:51:38;1.60;86.50
13332;DHT22;6735;51.456;12.626;2023-03-11T07:54:05;1.60;86.40
13332;DHT22;6735;51.456;12.626;2023-03-11T07:56:32;1.60;86.30
13332;DHT22;6735;51.456;12.626;2023-03-11T07:58:59;1.60;86.30
13332;DHT22;6735;51.456;12.626;2023-03-11T08:01:27;1.70;86.30
13332;DHT22;6735;51.456;12.626;2023-03-11T08:03:55;1.70;86.10
13332;DHT22;6735;51.456;12.626;2023-03-11T08:06:24;1.70;86.20
13332;DHT22;6735;51.456;12.626;2023-03-11T08:08:50;1.70;86.10
13332;DHT22;6735;51.456;12.626;2023-03-11T08:11:17;1.80;86.00
13332;DHT22;6735;51.456;12.626;2023-03-11T08:13:44;1.80;85.80
13332;DHT22;6735;51.456;12.626;2023-03-11T08:16:12;1.80;85.70
13332;DHT22;6735;51.456;12.626;2023-03-11T08:18:37;1.80;85.70
13332;DHT22;6735;51.456;12.626;2023-03-11T08:21:08;1.90;85.90
13332;DHT22;6735;51.456;12.626;2023-03-11T08:23:34;2.00;85.80
13332;DHT22;6735;51.456;12.626;2023-03-11T08:26:04;2.00;85.40
13332;DHT22;6735;51.456;12.626;2023-03-11T08:28:30;2.00;85.30
13332;DHT22;6735;51.456;12.626;2023-03-11T08:30:55;2.00;85.40
13332;DHT22;6735;51.456;12.626;2023-03-11T08:33:21;2.10;85.30
13332;DHT22;6735;51.456;12.626;2023-03-11T08:35:46;2.10;85.60
13332;DHT22;6735;51.456;12.626;2023-03-11T08:38:11;2.10;85.40
13332;DHT22;6735;51.456;12.626;2023-03-11T08:40:37;2.10;85.40
13332;DHT22;6735;51.456;12.626;2023-03-11T08:43:02;2.10;85.40
13332;DHT22;6735;51.456;12.626;2023-03-11T08:45:28;2.10;85.20
13332;DHT22;6735;51.456;12.626;2023-03-11T08:47:53;2.20;85.30
13332;DHT22;6735;51.456;12.626;2023-03-11T08:50:19;2.20;85.30
13332;DHT22;6735;51.456;12.626;2023-03-11T08:52:45;2.20;85.20
13332;DHT22;6735;51.456;12.626;2023-03-11T08:55:12;2.20;85.10
13332;DHT22;6735;51.456;12.626;2023-03-11T08:57:38;2.20;85.00
13332;DHT22;6735;51.456;12.626;2023-03-11T09:00:05;2.10;84.80
13332;DHT22;6735;51.456;12.626;2023-03-11T09:02:32;2.10;84.70
13332;DHT22;6735;51.456;12.626;2023-03-11T09:04:58;2.20;84.60
13332;DHT22;6735;51.456;12.626;2023-03-11T09:07:23;2.10;84.50
13332;DHT22;6735;51.456;12.626;2023-03-11T09:09:49;2.10;84.60
13332;DHT22;6735;51.456;12.626;2023-03-11T09:12:14;2.20;84.40
13332;DHT22;6735;51.456;12.626;2023-03-11T09:14:40;2.10;84.00
13332;DHT22;6735;51.456;12.626;2023-03-11T09:17:08;2.10;84.00
13332;DHT22;6735;51.456;12.626;2023-03-11T09:19:34;2.10;84.20
13332;DHT22;6735;51.456;12.626;2023-03-11T09:22:00;2.20;84.10
13332;DHT22;6735;51.456;12.626;2023-03-11T09:24:26;2.30;83.90
13332;DHT22;6735;51.456;12.626;2023-03-11T09:26:52;2.30;83.70
13332;DHT22;6735;51.456;12.626;2023-03-11T09:29:17;2.40;83.20
13332;DHT22;6735;51.456;12.626;2023-03-11T09:31:43;2.40;83.00
13332;DHT22;6735;51.456;12.626;2023-03-11T09:34:10;2.40;83.00
13332;DHT22;6735;51.456;12.626;2023-03-11T09:36:36;2.40;83.00
13332;DHT22;6735;51.456;12.626;2023-03-11T09:39:01;2.40;83.10
13332;DHT22;6735;51.456;12.626;2023-03-11T09:41:53;2.40;83.00
13332;DHT22;6735;51.456;12.626;2023-03-11T09:44:44;2.60;82.80
13332;DHT22;6735;51.456;12.626;2023-03-11T09:50:05;2.70;82.50
13332;DHT22;6735;51.456;12.626;2023-03-11T09:56:05;3.00;81.80
13332;DHT22;6735;51.456;12.626;2023-03-11T09:58:49;2.90;81.20
13332;DHT22;6735;51.456;12.626;2023-03-11T10:01:25;2.90;81.10
13332;DHT22;6735;51.456;12.626;2023-03-11T10:03:54;2.90;80.30
13332;DHT22;6735;51.456;12.626;2023-03-11T10:06:29;2.90;80.40
13332;DHT22;6735;51.456;12.626;2023-03-11T10:12:24;2.80;81.50
13332;DHT22;6735;51.456;12.626;2023-03-11T10:23:25;2.90;80.90
13332;DHT22;6735;51.456;12.626;2023-03-11T10:28:40;3.00;80.00
13332;DHT22;6735;51.456;12.626;2023-03-11T10:31:21;3.10;79.50
13332;DHT22;6735;51.456;12.626;2023-03-11T10:33:49;3.10;79.70
13332;DHT22;6735;51.456;12.626;2023-03-11T10:36:20;3.20;79.60
13332;DHT22;6735;51.456;12.626;2023-03-11T10:38:49;3.30;79.40
13332;DHT22;6735;51.456;12.626;2023-03-11T10:41:19;3.30;79.10
13332;DHT22;6735;51.456;12.626;2023-03-11T10:44:01;3.30;79.30
13332;DHT22;6735;51.456;12.626;2023-03-11T10:46:28;3.40;79.60
13332;DHT22;6735;51.456;12.626;2023-03-11T10:48:54;3.50;79.80
13332;DHT22;6735;51.456;12.626;2023-03-11T10:51:22;3.50;79.30
13332;DHT22;6735;51.456;12.626;2023-03-11T10:54:00;3.50;78.90
13332;DHT22;6735;51.456;12.626;2023-03-11T10:56:40;3.70;79.00
13332;DHT22;6735;51.456;12.626;2023-03-11T10:59:33;3.80;78.20
13332;DHT22;6735;51.456;12.626;2023-03-11T11:02:01;3.70;77.60
13332;DHT22;6735;51.456;12.626;2023-03-11T11:04:32;3.70;78.20
13332;DHT22;6735;51.456;12.626;2023-03-11T11:07:28;3.60;77.20
13332;DHT22;6735;51.456;12.626;2023-03-11T11:10:14;3.70;77.70
13332;DHT22;6735;51.456;12.626;2023-03-11T11:15:31;4.10;77.40
13332;DHT22;6735;51.456;12.626;2023-03-11T11:18:00;4.30;76.40
13332;DHT22;6735;51.456;12.626;2023-03-11T11:20:27;4.60;77.40
13332;DHT22;6735;51.456;12.626;2023-03-11T11:22:58;4.60;77.00
13332;DHT22;6735;51.456;12.626;2023-03-11T11:25:30;4.60;76.40
13332;DHT22;6735;51.456;12.626;2023-03-11T11:28:00;4.40;74.00
13332;DHT22;6735;51.456;12.626;2023-03-11T11:30:26;4.20;73.50
13332;DHT22;6735;51.456;12.626;2023-03-11T11:32:52;4.10;74.10
13332;DHT22;6735;51.456;12.626;2023-03-11T11:35:21;4.10;74.00
13332;DHT22;6735;51.456;12.626;2023-03-11T11:37:54;4.10;74.10
13332;DHT22;6735;51.456;12.626;2023-03-11T11:40:32;4.10;74.00
13332;DHT22;6735;51.456;12.626;2023-03-11T11:43:03;4.30;74.20
13332;DHT22;6735;51.456;12.626;2023-03-11T11:45:40;4.20;73.40
13332;DHT22;6735;51.456;12.626;2023-03-11T11:48:21;4.20;74.10
13332;DHT22;6735;51.456;12.626;2023-03-11T11:50:54;4.10;74.30
13332;DHT22;6735;51.456;12.626;2023-03-11T11:53:33;4.00;74.80
13332;DHT22;6735;51.456;12.626;2023-03-11T11:56:00;3.70;74.90
13332;DHT22;6735;51.456;12.626;2023-03-11T11:58:27;3.50;76.10
13332;DHT22;6735;51.456;12.626;2023-03-11T12:01:07;3.30;76.20
13332;DHT22;6735;51.456;12.626;2023-03-11T12:06:26;3.40;76.40
13332;DHT22;6735;51.456;12.626;2023-03-11T12:09:03;3.60;75.80
13332;DHT22;6735;51.456;12.626;2023-03-11T12:11:43;3.60;75.80
13332;DHT22;6735;51.456;12.626;2023-03-11T12:14:19;3.70;75.60
13332;DHT22;6735;51.456;12.626;2023-03-11T12:16:59;3.80;74.80
13332;DHT22;6735;51.456;12.626;2023-03-11T12:22:38;4.10;74.90
13332;DHT22;6735;51.456;12.626;2023-03-11T12:25:27;4.10;75.10
13332;DHT22;6735;51.456;12.626;2023-03-11T12:28:03;4.20;74.00
13332;DHT22;6735;51.456;12.626;2023-03-11T12:30:40;4.30;75.00
13332;DHT22;6735;51.456;12.626;2023-03-11T12:33:16;4.50;73.50
13332;DHT22;6735;51.456;12.626;2023-03-11T12:35:54;4.50;73.50
13332;DHT22;6735;51.456;12.626;2023-03-11T12:38:32;4.60;73.40
13332;DHT22;6735;51.456;12.626;2023-03-11T12:41:01;4.40;72.60
13332;DHT22;6735;51.456;12.626;2023-03-11T12:46:14;4.30;72.50
13332;DHT22;6735;51.456;12.626;2023-03-11T12:53:58;3.90;72.70
13332;DHT22;6735;51.456;12.626;2023-03-11T12:56:44;4.00;73.40
13332;DHT22;6735;51.456;12.626;2023-03-11T13:10:39;3.70;72.60
13332;DHT22;6735;51.456;12.626;2023-03-11T13:15:50;4.00;71.90
13332;DHT22;6735;51.456;12.626;2023-03-11T13:20:51;4.00;71.70
13332;DHT22;6735;51.456;12.626;2023-03-11T13:28:39;4.10;69.70
13332;DHT22;6735;51.456;12.626;2023-03-11T13:31:38;4.00;69.60
13332;DHT22;6735;51.456;12.626;2023-03-11T13:34:12;4.00;69.10
13332;DHT22;6735;51.456;12.626;2023-03-11T13:37:04;4.10;68.70
13332;DHT22;6735;51.456;12.626;2023-03-11T13:39:55;4.20;69.10
13332;DHT22;6735;51.456;12.626;2023-03-11T13:42:30;4.20;69.50
13332;DHT22;6735;51.456;12.626;2023-03-11T13:44:58;4.20;69.10
13332;DHT22;6735;51.456;12.626;2023-03-11T13:47:25;4.30;69.50
13332;DHT22;6735;51.456;12.626;2023-03-11T13:50:23;4.30;69.80
13332;DHT22;6735;51.456;12.626;2023-03-11T13:52:51;4.20;68.20
13332;DHT22;6735;51.456;12.626;2023-03-11T13:55:25;4.20;67.30
13332;DHT22;6735;51.456;12.626;2023-03-11T13:57:54;4.30;68.40
13332;DHT22;6735;51.456;12.626;2023-03-11T14:00:26;4.40;68.60
13332;DHT22;6735;51.456;12.626;2023-03-11T14:03:02;4.40;68.60
13332;DHT22;6735;51.456;12.626;2023-03-11T14:05:36;4.30;69.70
13332;DHT22;6735;51.456;12.626;2023-03-11T14:08:22;4.40;70.10
13332;DHT22;6735;51.456;12.626;2023-03-11T14:10:57;4.30;69.40
13332;DHT22;6735;51.456;12.626;2023-03-11T14:13:25;4.20;69.20
13332;DHT22;6735;51.456;12.626;2023-03-11T14:18:34;4.30;68.80
13332;DHT22;6735;51.456;12.626;2023-03-11T14:21:01;4.30;68.10
13332;DHT22;6735;51.456;12.626;2023-03-11T14:23:40;4.30;68.00
13332;DHT22;6735;51.456;12.626;2023-03-11T14:26:10;4.30;68.70
13332;DHT22;6735;51.456;12.626;2023-03-11T14:28:40;4.30;68.20
13332;DHT22;6735;51.456;12.626;2023-03-11T14:31:06;4.20;68.70
13332;DHT22;6735;51.456;12.626;2023-03-11T14:33:32;4.10;69.00
13332;DHT22;6735;51.456;12.626;2023-03-11T14:36:02;4.20;69.00
13332;DHT22;6735;51.456;12.626;2023-03-11T14:38:30;4.10;69.40
13332;DHT22;6735;51.456;12.626;2023-03-11T14:41:04;4.20;69.70
13332;DHT22;6735;51.456;12.626;2023-03-11T14:43:36;4.20;69.00
13332;DHT22;6735;51.456;12.626;2023-03-11T14:46:06;4.20;68.40
13332;DHT22;6735;51.456;12.626;2023-03-11T14:48:39;4.40;67.00
13332;DHT22;6735;51.456;12.626;2023-03-11T14:51:15;4.60;66.60
13332;DHT22;6735;51.456;12.626;2023-03-11T14:53:45;4.40;65.70
13332;DHT22;6735;51.456;12.626;2023-03-11T14:56:18;4.40;65.90
13332;DHT22;6735;51.456;12.626;2023-03-11T14:58:59;4.50;66.80
13332;DHT22;6735;51.456;12.626;2023-03-11T15:01:30;4.60;66.80
13332;DHT22;6735;51.456;12.626;2023-03-11T15:04:30;4.70;66.40
13332;DHT22;6735;51.456;12.626;2023-03-11T15:06:57;4.70;66.40
13332;DHT22;6735;51.456;12.626;2023-03-11T15:09:23;4.70;66.80
13332;DHT22;6735;51.456;12.626;2023-03-11T15:12:00;4.70;67.00
13332;DHT22;6735;51.456;12.626;2023-03-11T15:17:16;4.80;67.40
13332;DHT22;6735;51.456;12.626;2023-03-11T15:19:42;4.90;66.80
13332;DHT22;6735;51.456;12.626;2023-03-11T15:22:25;4.90;66.30
13332;DHT22;6735;51.456;12.626;2023-03-11T15:24:56;4.80;64.80
13332;DHT22;6735;51.456;12.626;2023-03-11T15:27:31;4.60;64.90
13332;DHT22;6735;51.456;12.626;2023-03-11T15:29:58;4.40;64.60
13332;DHT22;6735;51.456;12.626;2023-03-11T15:32:41;4.30;65.60
13332;DHT22;6735;51.456;12.626;2023-03-11T15:37:32;4.20;65.70
13332;DHT22;6735;51.456;12.626;2023-03-11T15:42:44;3.90;66.10
13332;DHT22;6735;51.456;12.626;2023-03-11T15:45:12;3.60;66.10
13332;DHT22;6735;51.456;12.626;2023-03-11T15:47:38;3.60;66.80
13332;DHT22;6735;51.456;12.626;2023-03-11T15:50:18;3.50;67.20
13332;DHT22;6735;51.456;12.626;2023-03-11T15:52:45;3.50;67.20
13332;DHT22;6735;51.456;12.626;2023-03-11T15:55:11;3.40;67.10
13332;DHT22;6735;51.456;12.626;2023-03-11T15:57:37;3.40;67.40
13332;DHT22;6735;51.456;12.626;2023-03-11T16:00:03;3.40;67.40
13332;DHT22;6735;51.456;12.626;2023-03-11T16:02:31;3.30;67.30
13332;DHT22;6735;51.456;12.626;2023-03-11T16:04:57;3.20;67.40
13332;DHT22;6735;51.456;12.626;2023-03-11T16:07:23;3.10;68.10
13332;DHT22;6735;51.456;12.626;2023-03-11T16:09:48;3.10;68.20
13332;DHT22;6735;51.456;12.626;2023-03-11T16:12:19;3.20;68.20
13332;DHT22;6735;51.456;12.626;2023-03-11T16:14:46;3.10;68.30
13332;DHT22;6735;51.456;12.626;2023-03-11T16:17:12;3.10;68.00
13332;DHT22;6735;51.456;12.626;2023-03-11T16:19:43;3.10;68.30
13332;DHT22;6735;51.456;12.626;2023-03-11T16:22:15;3.10;68.60
13332;DHT22;6735;51.456;12.626;2023-03-11T16:24:42;3.00;69.10
13332;DHT22;6735;51.456;12.626;2023-03-11T16:27:13;3.00;69.20
13332;DHT22;6735;51.456;12.626;2023-03-11T16:29:38;3.00;70.20
13332;DHT22;6735;51.456;12.626;2023-03-11T16:32:04;2.90;69.80
13332;DHT22;6735;51.456;12.626;2023-03-11T16:34:30;2.90;70.20
13332;DHT22;6735;51.456;12.626;2023-03-11T16:36:55;2.80;70.10
13332;DHT22;6735;51.456;12.626;2023-03-11T16:39:21;2.80;69.90
13332;DHT22;6735;51.456;12.626;2023-03-11T16:41:46;2.70;70.50
13332;DHT22;6735;51.456;12.626;2023-03-11T16:44:12;2.60;70.30
13332;DHT22;6735;51.456;12.626;2023-03-11T16:46:37;2.60;70.40
13332;DHT22;6735;51.456;12.626;2023-03-11T16:49:03;2.60;69.90
13332;DHT22;6735;51.456;12.626;2023-03-11T16:51:29;2.50;70.40
13332;DHT22;6735;51.456;12.626;2023-03-11T16:53:55;2.40;70.40
13332;DHT22;6735;51.456;12.626;2023-03-11T16:56:20;2.40;70.70
13332;DHT22;6735;51.456;12.626;2023-03-11T16:58:47;2.30;71.60
13332;DHT22;6735;51.456;12.626;2023-03-11T17:01:14;2.30;72.10
13332;DHT22;6735;51.456;12.626;2023-03-11T17:03:39;2.20;72.60
13332;DHT22;6735;51.456;12.626;2023-03-11T17:06:05;2.10;73.80
13332;DHT22;6735;51.456;12.626;2023-03-11T17:08:31;2.00;74.40
13332;DHT22;6735;51.456;12.626;2023-03-11T17:10:57;1.90;74.50